Cottam, Canada
Current Conditions -  °F | °C
As of 1:00 PM on Thursday 30 Oct 2014 (Local Time) from CYQG Reporting Station
Broken Clouds Broken Clouds  
Wind Chill: 45°   Ceiling: 3500
Heat Index: 48°   Visibility: 15mi
Dew Point: 34°   Wind: 7mph
Humidity: 57%   Direction: 320°NW
Pressure: 30.12"   Gusts: NA
Location:  42.13°N, 82.75°W
Report Text: CYQG 301700Z 32006KT 300V010 15SM BKN035 BKN270 09/01 A3012 RMK CU5CI2 SLP203
Loading
Personal Weather Stations






























Interactive Weather Map
Tropical Storm Tracking
New forecast layout! Learn more

10-Day Weather Forecast

Advertisements
Track Severe Weather on mobile